createdAt,value
2018-08-24T00:00:00.444Z,14.37
2018-08-24T00:02:28.656Z,13.67
2018-08-24T00:04:56.943Z,13.80
2018-08-24T00:07:25.187Z,11.67
2018-08-24T00:09:53.399Z,12.63
2018-08-24T00:12:21.635Z,12.97
2018-08-24T00:14:49.872Z,13.27
2018-08-24T00:17:23.411Z,11.67
2018-08-24T00:19:51.697Z,13.10
2018-08-24T00:22:19.937Z,14.67
2018-08-24T00:24:48.170Z,16.53
2018-08-24T00:27:16.383Z,11.47
2018-08-24T00:29:44.627Z,12.07
2018-08-24T00:32:12.875Z,14.93
2018-08-24T00:34:41.124Z,13.80
2018-08-24T00:37:09.361Z,12.57
2018-08-24T00:39:39.460Z,12.87
2018-08-24T00:42:07.701Z,13.80
2018-08-24T00:44:35.940Z,14.00
2018-08-24T00:47:04.152Z,11.77
2018-08-24T00:49:32.378Z,13.03
2018-08-24T00:52:00.588Z,12.10
2018-08-24T00:54:28.818Z,12.37
2018-08-24T00:56:57.022Z,12.10
2018-08-24T00:59:25.251Z,11.17
2018-08-24T01:01:53.484Z,11.47
2018-08-24T01:04:27.074Z,11.47
2018-08-24T01:06:55.284Z,11.57
2018-08-24T01:09:23.523Z,11.43
2018-08-24T01:11:58.152Z,12.07
2018-08-24T01:14:26.371Z,12.87
2018-08-24T01:16:59.932Z,12.40
2018-08-24T01:19:28.183Z,11.97
2018-08-24T01:21:56.435Z,12.47
2018-08-24T01:24:29.830Z,12.23
2018-08-24T01:27:05.965Z,11.73
2018-08-24T01:29:36.490Z,12.27
2018-08-24T01:32:05.031Z,11.53
2018-08-24T01:34:33.988Z,12.70
2018-08-24T01:37:02.271Z,13.57
2018-08-24T01:39:30.576Z,13.07
2018-08-24T01:41:58.835Z,13.77
2018-08-24T01:44:27.338Z,13.57
2018-08-24T01:46:55.605Z,12.30
2018-08-24T01:49:23.862Z,10.53
2018-08-24T01:51:52.081Z,11.17
2018-08-24T01:54:20.339Z,11.27
2018-08-24T01:56:49.603Z,10.77
2018-08-24T01:59:17.808Z,9.90
2018-08-24T02:01:46.087Z,12.27
2018-08-24T02:04:14.291Z,10.47
2018-08-24T02:06:42.519Z,10.10
2018-08-24T02:09:12.064Z,9.97
2018-08-24T02:11:40.333Z,9.50
2018-08-24T02:14:09.920Z,11.07
2018-08-24T02:16:39.124Z,10.43
2018-08-24T02:19:11.715Z,9.77
2018-08-24T02:21:45.362Z,8.40
2018-08-24T02:24:14.117Z,8.50
2018-08-24T02:26:43.243Z,9.23
2018-08-24T02:29:11.463Z,10.10
2018-08-24T02:31:44.947Z,8.87
2018-08-24T02:34:13.284Z,9.37
2018-08-24T02:36:41.503Z,8.60
2018-08-24T02:39:12.452Z,8.83
2018-08-24T02:41:41.058Z,8.50
2018-08-24T02:44:09.728Z,9.47
2018-08-24T02:46:38.216Z,8.80
2018-08-24T02:49:06.446Z,9.20
2018-08-24T02:51:34.731Z,9.10
2018-08-24T02:54:02.935Z,9.20
2018-08-24T02:56:31.183Z,10.57
2018-08-24T02:58:59.387Z,8.90
2018-08-24T03:01:27.597Z,8.60
2018-08-24T03:03:55.821Z,9.77
2018-08-24T03:06:24.048Z,8.43
2018-08-24T03:08:52.632Z,8.47
2018-08-24T03:11:20.855Z,8.37
2018-08-24T03:13:49.101Z,10.07
2018-08-24T03:16:17.395Z,9.10
2018-08-24T03:18:45.576Z,10.23
2018-08-24T03:21:13.807Z,11.90
2018-08-24T03:23:42.014Z,8.10
2018-08-24T03:26:10.297Z,8.63
2018-08-24T03:28:38.508Z,8.83
2018-08-24T03:31:06.792Z,8.57
2018-08-24T03:33:34.995Z,9.17
2018-08-24T03:36:03.211Z,8.67
2018-08-24T03:38:31.429Z,8.53
2018-08-24T03:40:59.663Z,10.33
2018-08-24T03:43:27.876Z,8.67
2018-08-24T03:45:56.136Z,9.47
2018-08-24T03:48:24.307Z,9.57
2018-08-24T03:50:52.517Z,11.07
2018-08-24T03:53:20.765Z,10.73
2018-08-24T03:55:48.974Z,8.53
2018-08-24T03:58:17.197Z,9.40
2018-08-24T04:00:45.433Z,9.07
2018-08-24T04:03:13.661Z,9.40
2018-08-24T04:05:41.887Z,9.37
2018-08-24T04:08:10.110Z,9.80
2018-08-24T04:10:38.343Z,11.70
2018-08-24T04:13:06.567Z,10.00
2018-08-24T04:15:34.780Z,11.70
2018-08-24T04:18:03.027Z,16.70
2018-08-24T04:20:31.256Z,16.57
2018-08-24T04:22:59.501Z,63.57
2018-08-24T04:25:27.751Z,56.93
2018-08-24T04:27:55.996Z,74.73
2018-08-24T04:30:24.228Z,78.90
2018-08-24T04:32:52.472Z,97.83
2018-08-24T04:35:20.671Z,94.00
2018-08-24T04:37:48.894Z,97.57
2018-08-24T04:40:17.215Z,80.60
2018-08-24T04:42:45.363Z,86.43
2018-08-24T04:45:13.581Z,66.87
2018-08-24T04:47:41.859Z,66.17
2018-08-24T04:50:10.081Z,54.37
2018-08-24T04:52:38.376Z,54.13
2018-08-24T04:55:06.679Z,54.30
2018-08-24T04:57:34.919Z,47.63
2018-08-24T05:00:03.164Z,47.70
2018-08-24T05:02:31.389Z,44.17
2018-08-24T05:04:59.586Z,41.43
2018-08-24T05:07:27.848Z,41.07
2018-08-24T05:09:56.064Z,35.90
2018-08-24T05:12:24.316Z,30.57
2018-08-24T05:14:52.555Z,31.03
2018-08-24T05:17:20.780Z,31.73
2018-08-24T05:19:49.039Z,25.13
2018-08-24T05:22:17.294Z,28.97
2018-08-24T05:24:45.583Z,26.10
2018-08-24T05:27:13.820Z,28.93
2018-08-24T05:29:42.078Z,25.73
2018-08-24T05:32:10.336Z,27.87
2018-08-24T05:34:38.584Z,24.13
2018-08-24T05:37:06.820Z,25.47
2018-08-24T05:39:35.072Z,23.63
2018-08-24T05:42:03.284Z,25.87
2018-08-24T05:44:31.557Z,23.87
2018-08-24T05:46:59.875Z,25.40
2018-08-24T05:49:28.231Z,23.23
2018-08-24T05:51:56.596Z,24.40
2018-08-24T05:54:24.837Z,23.70
2018-08-24T05:56:53.043Z,22.40
2018-08-24T05:59:21.460Z,23.03
2018-08-24T06:01:49.815Z,25.43
2018-08-24T06:04:18.040Z,22.53
2018-08-24T06:06:46.252Z,24.77
2018-08-24T06:09:16.474Z,24.63
2018-08-24T06:11:44.831Z,22.10
2018-08-24T06:14:13.744Z,22.67
2018-08-24T06:16:50.304Z,22.53
2018-08-24T06:19:19.135Z,22.73
2018-08-24T06:21:47.355Z,21.30
2018-08-24T06:24:15.599Z,22.00
2018-08-24T06:26:43.917Z,24.43
2018-08-24T06:29:12.157Z,21.33
2018-08-24T06:31:40.372Z,24.97
2018-08-24T06:34:08.635Z,24.80
2018-08-24T06:36:36.838Z,23.03
2018-08-24T06:39:07.924Z,26.93
2018-08-24T06:41:36.131Z,22.47
2018-08-24T06:44:04.360Z,22.33
2018-08-24T06:46:32.608Z,22.33
2018-08-24T06:49:00.864Z,22.70
2018-08-24T06:51:29.233Z,20.80
2018-08-24T06:53:57.682Z,25.40
2018-08-24T06:56:25.913Z,22.93
2018-08-24T06:58:54.143Z,21.53
2018-08-24T07:01:22.371Z,22.13
2018-08-24T07:03:50.621Z,20.13
2018-08-24T07:06:18.823Z,20.60
2018-08-24T07:08:47.116Z,23.37
2018-08-24T07:11:17.560Z,18.93
2018-08-24T07:13:47.817Z,18.80
2018-08-24T07:16:16.096Z,17.77
2018-08-24T07:18:44.362Z,17.90
2018-08-24T07:21:12.576Z,19.37
2018-08-24T07:23:40.811Z,18.33
2018-08-24T07:26:09.104Z,19.53
2018-08-24T07:28:37.407Z,16.97
2018-08-24T07:31:05.671Z,18.43
2018-08-24T07:33:33.939Z,20.23
2018-08-24T07:36:02.177Z,18.60
2018-08-24T07:38:30.835Z,19.20
2018-08-24T07:40:59.065Z,18.47
2018-08-24T07:43:27.277Z,17.37
2018-08-24T07:45:55.524Z,15.87
2018-08-24T07:48:23.779Z,16.40
2018-08-24T07:50:52.161Z,15.53
2018-08-24T07:53:20.380Z,15.07
2018-08-24T07:55:48.641Z,13.30
2018-08-24T07:58:16.924Z,16.33
2018-08-24T08:00:45.161Z,12.07
2018-08-24T08:03:13.435Z,13.07
2018-08-24T08:05:41.716Z,12.00
2018-08-24T08:08:09.926Z,12.73
2018-08-24T08:10:39.359Z,11.93
2018-08-24T08:13:08.643Z,10.83
2018-08-24T08:15:36.880Z,11.77
2018-08-24T08:18:05.368Z,12.23
2018-08-24T08:20:33.560Z,9.77
2018-08-24T08:23:03.308Z,13.97
2018-08-24T08:25:31.580Z,15.57
2018-08-24T08:28:00.051Z,15.40
2018-08-24T08:30:29.453Z,14.43
2018-08-24T08:32:57.733Z,17.03
2018-08-24T08:35:26.010Z,17.13
2018-08-24T08:37:54.285Z,13.77
2018-08-24T08:40:22.556Z,15.17
2018-08-24T08:42:50.797Z,14.43
2018-08-24T08:45:19.030Z,14.50
2018-08-24T08:47:47.276Z,14.37
2018-08-24T08:50:15.510Z,12.97
2018-08-24T08:52:43.731Z,16.43
2018-08-24T08:55:11.982Z,14.87
2018-08-24T08:57:40.190Z,13.50
2018-08-24T09:00:08.415Z,11.48
2018-08-24T09:02:36.629Z,11.28
2018-08-24T09:05:04.895Z,12.58
2018-08-24T09:07:33.210Z,11.78
2018-08-24T09:10:01.443Z,10.80
2018-08-24T09:12:29.693Z,10.32
2018-08-24T09:14:57.922Z,10.15
2018-08-24T09:17:31.475Z,11.90
2018-08-24T09:20:05.193Z,9.05
2018-08-24T09:22:38.644Z,11.75
2018-08-24T09:25:12.246Z,9.90
2018-08-24T09:27:45.675Z,11.45
2018-08-24T09:30:13.916Z,8.98
2018-08-24T09:32:42.322Z,13.20
2018-08-24T09:35:10.391Z,8.78
2018-08-24T09:37:39.579Z,7.35
2018-08-24T09:40:08.391Z,7.72
2018-08-24T09:42:36.606Z,9.73
2018-08-24T09:45:05.207Z,8.35
2018-08-24T09:47:38.902Z,7.67
2018-08-24T09:50:12.718Z,9.58
2018-08-24T09:52:40.932Z,9.40
2018-08-24T09:55:10.080Z,8.10
2018-08-24T09:57:38.310Z,5.85
2018-08-24T10:00:06.776Z,6.90
2018-08-24T10:02:40.390Z,6.40
2018-08-24T10:05:14.062Z,7.50
2018-08-24T10:07:44.177Z,7.22
2018-08-24T10:10:12.437Z,7.47
2018-08-24T10:12:40.649Z,8.30
2018-08-24T10:15:09.589Z,7.08
2018-08-24T10:17:37.836Z,6.40
2018-08-24T10:20:06.663Z,6.40
2018-08-24T10:22:34.881Z,7.60
2018-08-24T10:25:03.288Z,10.98
2018-08-24T10:27:31.728Z,8.63
2018-08-24T10:29:59.934Z,6.30
2018-08-24T10:32:28.158Z,6.55
2018-08-24T10:34:56.380Z,7.60
2018-08-24T10:37:24.628Z,7.83
2018-08-24T10:39:52.919Z,5.35
2018-08-24T10:42:21.210Z,5.20
2018-08-24T10:44:49.413Z,5.25
2018-08-24T10:47:17.778Z,5.12
2018-08-24T10:49:45.943Z,7.78
2018-08-24T10:52:14.189Z,5.30
2018-08-24T10:54:42.485Z,7.35
2018-08-24T10:57:10.704Z,9.05
2018-08-24T10:59:38.951Z,11.30
2018-08-24T11:02:07.428Z,10.60
2018-08-24T11:04:35.637Z,11.43
2018-08-24T11:07:03.944Z,9.83
2018-08-24T11:09:32.224Z,14.87
2018-08-24T11:12:00.575Z,7.67
2018-08-24T11:14:29.056Z,5.10
2018-08-24T11:16:57.426Z,5.97
2018-08-24T11:19:25.663Z,8.33
2018-08-24T11:21:53.949Z,4.63
2018-08-24T11:24:22.247Z,3.70
2018-08-24T11:26:50.503Z,5.60
2018-08-24T11:29:18.773Z,5.70
2018-08-24T11:31:46.962Z,4.90
2018-08-24T11:34:15.196Z,3.47
2018-08-24T11:36:43.432Z,3.77
2018-08-24T11:39:11.639Z,4.73
2018-08-24T11:41:39.953Z,4.47
2018-08-24T11:44:08.151Z,4.37
2018-08-24T11:46:36.400Z,3.70
2018-08-24T11:49:04.848Z,5.33
2018-08-24T11:51:33.062Z,6.40
2018-08-24T11:54:01.744Z,7.97
2018-08-24T11:56:29.903Z,4.77
2018-08-24T11:58:58.127Z,3.07
2018-08-24T12:01:26.352Z,6.13
2018-08-24T12:03:54.624Z,3.93
2018-08-24T12:06:22.916Z,4.40
2018-08-24T12:08:51.143Z,3.73
2018-08-24T12:11:19.391Z,5.80
2018-08-24T12:13:47.715Z,4.70
2018-08-24T12:16:15.899Z,4.60
2018-08-24T12:18:44.590Z,4.50
2018-08-24T12:21:12.856Z,4.20
2018-08-24T12:23:42.091Z,5.03
2018-08-24T12:26:10.312Z,5.80
2018-08-24T12:28:38.574Z,5.53
2018-08-24T12:31:06.867Z,5.40
2018-08-24T12:33:35.135Z,6.37
2018-08-24T12:36:03.352Z,8.47
2018-08-24T12:38:31.578Z,5.70
2018-08-24T12:40:59.783Z,6.30
2018-08-24T12:43:28.082Z,6.10
2018-08-24T12:45:56.266Z,5.67
2018-08-24T12:48:25.084Z,5.30
2018-08-24T12:50:53.360Z,8.00
2018-08-24T12:53:21.635Z,5.70
2018-08-24T12:55:49.839Z,6.10
2018-08-24T12:58:18.063Z,6.27
2018-08-24T13:00:46.352Z,6.37
2018-08-24T13:03:14.647Z,7.73
2018-08-24T13:05:42.871Z,7.33
2018-08-24T13:08:11.115Z,7.60
2018-08-24T13:10:39.329Z,7.30
2018-08-24T13:13:07.563Z,6.87
2018-08-24T13:15:35.773Z,6.57
2018-08-24T13:18:04.022Z,8.90
2018-08-24T13:20:32.215Z,8.03
2018-08-24T13:23:00.444Z,7.63
2018-08-24T13:25:28.850Z,7.43
2018-08-24T13:27:57.116Z,7.13
2018-08-24T13:30:25.326Z,7.97
2018-08-24T13:32:53.577Z,8.03
2018-08-24T13:35:21.809Z,9.87
2018-08-24T13:37:50.020Z,7.40
2018-08-24T13:40:18.239Z,9.17
2018-08-24T13:42:46.504Z,8.67
2018-08-24T13:45:14.753Z,6.80
2018-08-24T13:47:43.042Z,7.73
2018-08-24T13:50:11.261Z,6.50
2018-08-24T13:52:39.472Z,7.83
2018-08-24T13:55:08.873Z,6.57
2018-08-24T13:57:37.117Z,7.93
2018-08-24T14:00:05.474Z,7.60
2018-08-24T14:02:33.609Z,6.70
2018-08-24T14:05:01.839Z,6.30
2018-08-24T14:07:30.071Z,8.20
2018-08-24T14:09:58.292Z,9.53
2018-08-24T14:12:26.616Z,5.80
2018-08-24T14:14:54.867Z,8.83
2018-08-24T14:17:23.474Z,9.33
2018-08-24T14:19:51.740Z,6.70
2018-08-24T14:22:19.961Z,5.63
2018-08-24T14:24:48.194Z,7.40
2018-08-24T14:27:16.442Z,6.27
2018-08-24T14:29:44.672Z,6.40
2018-08-24T14:32:12.925Z,6.60
2018-08-24T14:34:41.305Z,6.43
2018-08-24T14:37:09.503Z,7.30
2018-08-24T14:39:37.747Z,7.83
2018-08-24T14:42:05.963Z,7.53
2018-08-24T14:44:34.192Z,8.13
2018-08-24T14:47:02.427Z,6.77
2018-08-24T14:49:30.644Z,7.27
2018-08-24T14:51:58.864Z,5.87
2018-08-24T14:54:27.119Z,8.77
2018-08-24T14:56:55.881Z,9.27
2018-08-24T14:59:24.127Z,8.67
2018-08-24T15:01:52.403Z,6.47
2018-08-24T15:04:20.682Z,6.80
2018-08-24T15:06:48.866Z,8.63
2018-08-24T15:09:17.094Z,11.83
2018-08-24T15:11:45.352Z,9.03
2018-08-24T15:14:13.628Z,10.17
2018-08-24T15:16:41.838Z,7.87
2018-08-24T15:19:10.625Z,8.13
2018-08-24T15:21:38.909Z,8.93
2018-08-24T15:24:07.287Z,9.07
2018-08-24T15:26:35.539Z,9.23
2018-08-24T15:29:03.837Z,7.67
2018-08-24T15:31:32.392Z,10.33
2018-08-24T15:34:00.710Z,10.63
2018-08-24T15:36:28.927Z,10.33
2018-08-24T15:38:57.215Z,8.67
2018-08-24T15:41:25.443Z,8.10
2018-08-24T15:43:53.655Z,7.50
2018-08-24T15:46:21.944Z,10.13
2018-08-24T15:48:50.164Z,9.13
2018-08-24T15:51:18.465Z,9.77
2018-08-24T15:53:46.703Z,9.23
2018-08-24T15:56:14.978Z,8.93
2018-08-24T15:58:43.212Z,8.60
2018-08-24T16:01:11.435Z,7.93
2018-08-24T16:03:39.678Z,8.60
2018-08-24T16:06:07.965Z,7.50
2018-08-24T16:08:36.292Z,8.87
2018-08-24T16:11:04.511Z,7.93
2018-08-24T16:13:32.757Z,8.10
2018-08-24T16:16:00.994Z,7.53
2018-08-24T16:18:29.337Z,10.13
2018-08-24T16:20:57.587Z,7.07
2018-08-24T16:23:25.829Z,9.17
2018-08-24T16:25:54.127Z,9.87
2018-08-24T16:28:22.357Z,9.07
2018-08-24T16:30:50.681Z,7.33
2018-08-24T16:33:19.247Z,10.30
2018-08-24T16:35:47.492Z,8.17
2018-08-24T16:38:16.260Z,7.60
2018-08-24T16:40:44.503Z,8.40
2018-08-24T16:43:13.135Z,8.93
2018-08-24T16:45:41.487Z,8.33
2018-08-24T16:48:09.754Z,7.63
2018-08-24T16:50:37.991Z,9.40
2018-08-24T16:53:06.307Z,8.20
2018-08-24T16:55:34.656Z,8.93
2018-08-24T16:58:03.026Z,9.57
2018-08-24T17:00:31.167Z,9.23
2018-08-24T17:02:59.406Z,8.97
2018-08-24T17:05:27.658Z,9.30
2018-08-24T17:07:55.872Z,13.13
2018-08-24T17:10:24.191Z,7.87
2018-08-24T17:12:52.499Z,10.50
2018-08-24T17:15:20.746Z,8.07
2018-08-24T17:17:48.995Z,9.47
2018-08-24T17:20:17.218Z,9.50
2018-08-24T17:22:45.433Z,8.17
2018-08-24T17:25:13.635Z,8.80
2018-08-24T17:27:41.860Z,10.33
2018-08-24T17:30:10.075Z,9.00
2018-08-24T17:32:38.289Z,8.67
2018-08-24T17:35:06.926Z,7.70
2018-08-24T17:37:35.497Z,7.47
2018-08-24T17:40:03.736Z,10.43
2018-08-24T17:42:31.965Z,5.90
2018-08-24T17:45:00.172Z,7.20
2018-08-24T17:47:28.397Z,6.83
2018-08-24T17:49:57.057Z,5.53
2018-08-24T17:52:25.304Z,5.37
2018-08-24T17:54:53.695Z,5.63
2018-08-24T17:57:21.910Z,5.90
2018-08-24T17:59:50.131Z,7.23
2018-08-24T18:02:18.356Z,4.00
2018-08-24T18:04:46.596Z,5.70
2018-08-24T18:07:14.968Z,4.53
2018-08-24T18:09:43.151Z,4.60
2018-08-24T18:12:11.391Z,5.53
2018-08-24T18:14:39.606Z,3.97
2018-08-24T18:17:07.846Z,4.30
2018-08-24T18:19:36.069Z,3.97
2018-08-24T18:22:04.311Z,2.90
2018-08-24T18:24:32.551Z,2.97
2018-08-24T18:27:00.761Z,4.80
2018-08-24T18:29:28.995Z,3.03
2018-08-24T18:31:57.248Z,3.23
2018-08-24T18:34:25.471Z,4.93
2018-08-24T18:36:53.692Z,4.60
2018-08-24T18:39:21.899Z,3.13
2018-08-24T18:41:50.119Z,3.40
2018-08-24T18:44:18.347Z,3.63
2018-08-24T18:46:46.559Z,3.37
2018-08-24T18:49:14.773Z,3.13
2018-08-24T18:51:42.994Z,4.03
2018-08-24T18:54:11.208Z,4.67
2018-08-24T18:56:39.491Z,6.53
2018-08-24T18:59:07.779Z,6.30
2018-08-24T19:01:35.993Z,4.73
2018-08-24T19:04:04.199Z,3.37
2018-08-24T19:06:32.458Z,3.30
2018-08-24T19:09:00.670Z,5.07
2018-08-24T19:11:34.268Z,5.13
2018-08-24T19:14:02.476Z,2.93
2018-08-24T19:16:30.719Z,4.33
2018-08-24T19:19:04.424Z,4.50
2018-08-24T19:21:38.148Z,4.47
2018-08-24T19:24:06.371Z,5.43
2018-08-24T19:26:34.599Z,6.87
2018-08-24T19:29:08.292Z,5.03
2018-08-24T19:31:36.507Z,4.40
2018-08-24T19:34:04.762Z,4.83
2018-08-24T19:36:33.773Z,8.47
2018-08-24T19:39:02.020Z,7.53
2018-08-24T19:41:35.593Z,5.33
2018-08-24T19:44:03.824Z,4.60
2018-08-24T19:46:32.757Z,3.93
2018-08-24T19:49:06.500Z,6.67
2018-08-24T19:51:34.701Z,6.63
2018-08-24T19:54:02.939Z,4.77
2018-08-24T19:56:31.153Z,5.20
2018-08-24T19:59:06.831Z,4.97
2018-08-24T20:01:35.520Z,3.63
2018-08-24T20:04:04.721Z,5.03
2018-08-24T20:06:38.378Z,4.60
2018-08-24T20:09:14.877Z,3.37
2018-08-24T20:11:44.732Z,4.20
2018-08-24T20:14:12.984Z,3.60
2018-08-24T20:16:46.721Z,4.60
2018-08-24T20:19:15.117Z,4.03
2018-08-24T20:21:43.436Z,3.77
2018-08-24T20:24:11.778Z,4.30
2018-08-24T20:26:39.972Z,5.00
2018-08-24T20:29:08.232Z,5.60
2018-08-24T20:31:36.645Z,6.70
2018-08-24T20:34:04.911Z,5.20
2018-08-24T20:36:33.134Z,4.63
2018-08-24T20:39:01.436Z,4.07
2018-08-24T20:41:29.644Z,5.10
2018-08-24T20:43:57.933Z,4.03
2018-08-24T20:46:26.131Z,4.10
2018-08-24T20:48:54.356Z,3.87
2018-08-24T20:51:22.588Z,3.37
2018-08-24T20:53:51.139Z,3.93
2018-08-24T20:56:19.348Z,4.37
2018-08-24T20:58:47.584Z,4.17
2018-08-24T21:01:15.795Z,4.10
2018-08-24T21:03:44.006Z,4.13
2018-08-24T21:06:12.216Z,6.63
2018-08-24T21:08:40.434Z,4.27
2018-08-24T21:11:08.642Z,6.67
2018-08-24T21:13:36.883Z,4.03
2018-08-24T21:16:05.095Z,5.57
2018-08-24T21:18:33.327Z,8.17
2018-08-24T21:21:01.543Z,13.47
2018-08-24T21:23:29.813Z,18.40
2018-08-24T21:25:58.041Z,17.07
2018-08-24T21:28:26.265Z,19.13
2018-08-24T21:30:54.474Z,18.20
2018-08-24T21:33:22.720Z,19.60
2018-08-24T21:35:50.947Z,21.03
2018-08-24T21:38:19.467Z,14.47
2018-08-24T21:40:47.757Z,14.10
2018-08-24T21:43:15.984Z,15.57
2018-08-24T21:45:44.217Z,12.10
2018-08-24T21:48:12.632Z,14.30
2018-08-24T21:50:40.952Z,14.57
2018-08-24T21:53:09.168Z,13.47
2018-08-24T21:55:37.445Z,13.43
2018-08-24T21:58:06.125Z,13.57
2018-08-24T22:00:38.521Z,18.30
2018-08-24T22:03:06.757Z,19.10
2018-08-24T22:05:34.996Z,22.17
2018-08-24T22:08:03.280Z,19.63
2018-08-24T22:10:31.520Z,23.70
2018-08-24T22:12:59.732Z,30.37
2018-08-24T22:15:27.966Z,36.20
2018-08-24T22:17:56.186Z,37.10
2018-08-24T22:20:24.410Z,35.83
2018-08-24T22:22:52.625Z,33.40
2018-08-24T22:25:20.851Z,31.17
2018-08-24T22:27:49.082Z,35.20
2018-08-24T22:30:17.319Z,25.53
2018-08-24T22:32:45.718Z,28.10
2018-08-24T22:35:14.024Z,27.40
2018-08-24T22:37:42.319Z,23.23
2018-08-24T22:40:10.547Z,21.20
2018-08-24T22:42:41.915Z,24.20
2018-08-24T22:45:10.430Z,27.10
2018-08-24T22:47:38.721Z,23.37
2018-08-24T22:50:06.943Z,20.27
2018-08-24T22:52:35.155Z,17.23
2018-08-24T22:55:03.391Z,14.67
2018-08-24T22:57:31.668Z,14.77
2018-08-24T22:59:59.896Z,13.50
2018-08-24T23:02:28.111Z,11.57
2018-08-24T23:04:56.374Z,13.53
2018-08-24T23:07:24.696Z,16.47
2018-08-24T23:09:52.967Z,15.37
2018-08-24T23:12:21.195Z,16.73
2018-08-24T23:14:49.416Z,16.77
2018-08-24T23:17:17.768Z,18.30
2018-08-24T23:19:46.010Z,16.37
2018-08-24T23:22:14.499Z,16.60
2018-08-24T23:24:42.771Z,16.90
2018-08-24T23:27:10.998Z,15.60
2018-08-24T23:29:39.232Z,15.63
2018-08-24T23:32:07.497Z,15.87
2018-08-24T23:34:35.688Z,17.97
2018-08-24T23:37:04.004Z,20.13
2018-08-24T23:39:32.308Z,25.97
2018-08-24T23:42:00.599Z,23.17
2018-08-24T23:44:28.816Z,23.87
2018-08-24T23:46:57.044Z,22.40
2018-08-24T23:49:25.259Z,28.87
2018-08-24T23:51:53.484Z,30.33
2018-08-24T23:54:21.710Z,25.47
2018-08-24T23:56:49.998Z,28.57
2018-08-24T23:59:18.226Z,29.60
